Time;durP1;ratioP1;P1;durP2;ratioP2;P2;SDS_P1;SDS_P2;PMS_P1;PMS_P2;Temp;Humidity;BMP_temperature;BMP_pressure;BME280_temperature;BME280_humidity;BME280_pressure;Samples;Min_cycle;Max_cycle;Signal;HPM_P1;HPM_P2
2022/08/14 00:00:49;;;;;;;8.65;5.05;;;23.10;99.90;;;;;;5049013;22;20266;-79
2022/08/14 00:03:33;;;;;;;5.95;5.38;;;23.10;99.90;;;;;;5017954;28;20192;-80
2022/08/14 00:06:18;;;;;;;5.28;4.70;;;23.10;99.90;;;;;;5013540;28;20238;-79
2022/08/14 00:09:14;;;;;;;5.68;5.07;;;23.00;99.90;;;;;;5014115;28;20191;-78
2022/08/14 00:12:00;;;;;;;5.65;4.70;;;23.00;99.90;;;;;;5007874;28;20265;-77
2022/08/14 00:14:44;;;;;;;7.60;4.63;;;23.00;99.90;;;;;;5012047;28;20215;-78
2022/08/14 00:17:32;;;;;;;4.97;4.55;;;23.00;99.90;;;;;;5010774;28;20194;-79
2022/08/14 00:20:46;;;;;;;6.97;4.65;;;23.00;99.90;;;;;;5013055;28;20228;-79
2022/08/14 00:23:57;;;;;;;5.63;5.13;;;23.00;99.90;;;;;;5025015;28;20207;-78
2022/08/14 00:26:58;;;;;;;5.43;4.93;;;23.00;99.90;;;;;;5015109;28;20203;-78
2022/08/14 00:32:46;;;;;;;5.63;5.05;;;23.00;99.90;;;;;;5024896;23;20793;-79
2022/08/14 00:35:31;;;;;;;5.70;5.15;;;23.00;99.90;;;;;;5013642;28;20194;-79
2022/08/14 00:38:17;;;;;;;5.47;4.90;;;23.00;99.90;;;;;;5008608;28;20190;-79
2022/08/14 00:41:06;;;;;;;5.55;4.90;;;23.00;99.90;;;;;;5027669;28;20207;-79
2022/08/14 00:43:50;;;;;;;7.57;5.10;;;23.00;99.90;;;;;;5006106;28;20192;-77
2022/08/14 00:46:39;;;;;;;5.15;4.70;;;23.00;99.90;;;;;;5017156;28;20191;-78
2022/08/14 00:49:27;;;;;;;5.53;5.00;;;23.00;99.90;;;;;;5009625;28;20195;-77
2022/08/14 00:52:14;;;;;;;6.68;5.10;;;22.90;99.90;;;;;;5030831;28;20234;-80
2022/08/14 00:55:07;;;;;;;8.05;4.80;;;22.90;99.90;;;;;;5013694;28;20190;-78
2022/08/14 01:01:10;;;;;;;6.22;5.18;;;22.90;99.90;;;;;;5010834;28;20354;-77
2022/08/14 01:07:53;;;;;;;6.95;5.45;;;22.90;99.90;;;;;;5027293;28;20198;-78
2022/08/14 01:10:52;;;;;;;11.25;5.50;;;22.90;99.90;;;;;;5024642;28;20810;-79
2022/08/14 01:13:39;;;;;;;10.23;5.75;;;22.80;99.90;;;;;;5011108;28;20192;-77
2022/08/14 01:16:23;;;;;;;6.38;5.50;;;22.80;99.90;;;;;;5012573;28;20190;-78
2022/08/14 01:22:24;;;;;;;5.45;4.95;;;22.80;99.90;;;;;;5026540;28;20223;-81
2022/08/14 01:25:14;;;;;;;6.70;5.32;;;22.70;99.90;;;;;;5024790;28;20629;-79
2022/08/14 01:28:01;;;;;;;5.35;4.85;;;22.70;99.90;;;;;;5013747;28;20266;-80
2022/08/14 01:30:47;;;;;;;7.88;5.88;;;22.70;99.90;;;;;;5013561;28;20231;-79
2022/08/14 01:34:06;;;;;;;6.47;5.20;;;22.70;99.90;;;;;;5012044;28;20204;-80
2022/08/14 01:44:12;;;;;;;8.88;5.63;;;22.60;99.90;;;;;;5024656;28;20191;-78
2022/08/14 01:47:52;;;;;;;5.60;5.10;;;22.60;99.90;;;;;;5013594;28;20272;-78
2022/08/14 01:50:51;;;;;;;6.28;5.30;;;22.50;99.90;;;;;;5018504;28;20234;-79
2022/08/14 01:54:10;;;;;;;9.23;6.05;;;22.60;99.90;;;;;;5018837;28;20222;-78
2022/08/14 01:57:32;;;;;;;7.00;5.30;;;22.50;99.90;;;;;;5003433;28;20196;-76
2022/08/14 02:00:38;;;;;;;8.25;6.15;;;22.50;99.90;;;;;;5005609;28;20247;-76
2022/08/14 02:03:31;;;;;;;7.63;6.07;;;22.50;99.90;;;;;;5009128;28;20195;-77
2022/08/14 02:06:18;;;;;;;9.10;6.15;;;22.40;99.90;;;;;;5018746;28;20223;-78
2022/08/14 02:09:04;;;;;;;8.73;5.80;;;22.40;99.90;;;;;;5025705;28;20195;-77
2022/08/14 02:11:51;;;;;;;6.78;6.07;;;22.40;99.90;;;;;;5019509;28;20614;-78
2022/08/14 02:14:35;;;;;;;6.30;5.70;;;22.30;99.90;;;;;;5008195;28;20195;-78
2022/08/14 02:17:22;;;;;;;6.88;6.28;;;22.30;99.90;;;;;;5006737;28;20206;-78
2022/08/14 02:20:55;;;;;;;7.20;6.30;;;22.30;99.90;;;;;;5011922;28;20198;-80
2022/08/14 02:24:21;;;;;;;;;;;;;;;;;;;;;
2022/08/14 02:30:19;;;;;;;7.43;6.25;;;22.20;99.90;;;;;;5008737;28;20227;-78
2022/08/14 02:33:28;;;;;;;7.75;6.95;;;22.10;99.90;;;;;;5029917;28;20220;-78
2022/08/14 02:36:48;;;;;;;9.02;7.60;;;22.10;99.90;;;;;;5010603;28;20759;-78
2022/08/14 02:39:43;;;;;;;7.55;6.78;;;22.10;99.90;;;;;;5008805;28;20270;-78
2022/08/14 02:42:31;;;;;;;7.78;6.90;;;22.00;99.90;;;;;;5028403;28;20243;-79
2022/08/14 02:45:16;;;;;;;9.02;7.15;;;21.90;99.90;;;;;;5015902;28;20242;-78
2022/08/14 02:48:05;;;;;;;8.10;7.07;;;21.90;99.90;;;;;;5012166;28;20243;-78
2022/08/14 02:50:50;;;;;;;7.18;6.47;;;21.90;99.90;;;;;;5043859;22;20286;-80
2022/08/14 02:53:38;;;;;;;10.75;6.60;;;21.90;99.90;;;;;;5034056;28;20194;-78
2022/08/14 02:56:58;;;;;;;7.38;6.68;;;21.80;99.90;;;;;;5037570;28;20253;-77
2022/08/14 03:03:22;;;;;;;;;;;;;;;;;;;;;
2022/08/14 03:06:19;;;;;;;9.80;6.47;;;21.80;99.90;;;;;;5015350;28;20258;-78
2022/08/14 03:09:04;;;;;;;7.05;6.35;;;21.70;99.90;;;;;;4989101;28;20252;-79
2022/08/14 03:12:01;;;;;;;9.82;6.30;;;21.70;99.90;;;;;;4991891;28;20272;-78
2022/08/14 03:14:52;;;;;;;7.15;6.22;;;21.70;99.90;;;;;;4992972;28;20200;-78
2022/08/14 03:17:41;;;;;;;7.10;6.43;;;21.60;99.90;;;;;;4988447;28;20669;-79
2022/08/14 03:20:34;;;;;;;7.95;6.57;;;21.60;99.90;;;;;;4993056;28;20211;-78
2022/08/14 03:23:19;;;;;;;7.40;6.35;;;21.50;99.90;;;;;;4982091;28;20192;-78
2022/08/14 03:26:11;;;;;;;6.63;5.97;;;21.50;99.90;;;;;;4991198;28;20202;-78
2022/08/14 03:28:56;;;;;;;8.35;6.50;;;21.50;99.90;;;;;;4995199;28;20240;-78
2022/08/14 03:31:41;;;;;;;6.75;6.00;;;21.50;99.90;;;;;;4991128;28;20271;-79
2022/08/14 03:34:49;;;;;;;8.05;6.90;;;21.50;99.90;;;;;;4993631;28;20187;-78
2022/08/14 03:37:39;;;;;;;9.95;6.50;;;21.40;99.90;;;;;;4989038;28;20264;-78
2022/08/14 03:41:09;;;;;;;6.90;6.20;;;21.40;99.90;;;;;;4986914;28;20212;-78
2022/08/14 03:44:00;;;;;;;9.43;6.53;;;21.40;99.90;;;;;;4987354;28;20196;-78
2022/08/14 03:46:47;;;;;;;6.88;5.95;;;21.30;99.90;;;;;;4986344;28;20193;-75
2022/08/14 03:49:35;;;;;;;8.68;6.20;;;21.30;99.90;;;;;;4991876;28;20287;-78
2022/08/14 03:52:20;;;;;;;7.03;6.32;;;21.30;99.90;;;;;;4982026;28;20244;-79
2022/08/14 03:55:07;;;;;;;6.75;6.10;;;21.20;99.90;;;;;;4990526;28;20236;-77
2022/08/14 03:57:51;;;;;;;9.73;6.93;;;21.20;99.90;;;;;;4991209;28;20668;-80
2022/08/14 04:00:41;;;;;;;7.80;6.63;;;21.20;99.90;;;;;;4987852;28;20600;-79
2022/08/14 04:03:35;;;;;;;9.50;6.82;;;21.10;99.90;;;;;;4982367;28;20254;-78
2022/08/14 04:06:20;;;;;;;7.70;7.00;;;21.10;99.90;;;;;;4990660;28;20726;-78
2022/08/14 04:09:09;;;;;;;8.15;6.50;;;21.10;99.90;;;;;;4989902;28;20236;-77
2022/08/14 04:11:54;;;;;;;7.53;6.25;;;21.10;99.90;;;;;;4998844;28;20580;-78
2022/08/14 04:14:39;;;;;;;7.07;6.53;;;21.10;99.90;;;;;;4999928;28;20220;-77
2022/08/14 04:17:25;;;;;;;9.30;6.72;;;21.10;99.90;;;;;;4992727;28;20244;-77
2022/08/14 04:20:30;;;;;;;7.88;7.07;;;21.10;99.90;;;;;;4997174;28;20205;-78
2022/08/14 04:23:50;;;;;;;8.48;7.07;;;21.00;99.90;;;;;;4993152;28;20231;-77
2022/08/14 04:26:42;;;;;;;7.82;6.85;;;21.00;99.90;;;;;;4994244;28;20263;-78
2022/08/14 04:29:27;;;;;;;12.18;6.90;;;21.00;99.90;;;;;;4994378;28;20240;-76
2022/08/14 04:32:14;;;;;;;7.05;6.40;;;20.90;99.90;;;;;;4998271;28;20227;-79
2022/08/14 04:34:59;;;;;;;7.80;6.20;;;20.90;99.90;;;;;;4998705;28;20200;-78
2022/08/14 04:43:56;;;;;;;7.05;6.30;;;20.80;99.90;;;;;;4990772;28;20196;-78
2022/08/14 04:48:11;;;;;;;8.15;6.35;;;20.80;99.90;;;;;;4990870;28;20232;-78
2022/08/14 04:50:13;;;;;;;8.27;6.43;;;20.80;99.90;;;;;;4983859;28;20260;-78
2022/08/14 04:52:57;;;;;;;7.25;6.45;;;20.80;99.90;;;;;;4978023;28;20206;-78
2022/08/14 04:56:06;;;;;;;6.35;5.55;;;20.70;99.90;;;;;;4987149;28;20235;-78
2022/08/14 04:59:17;;;;;;;7.22;6.53;;;20.70;99.90;;;;;;4993203;28;20265;-78
2022/08/14 05:02:05;;;;;;;8.30;6.45;;;20.70;99.90;;;;;;4981796;28;20266;-78
2022/08/14 05:04:49;;;;;;;11.40;6.38;;;20.70;99.90;;;;;;4982188;28;20209;-76
2022/08/14 05:07:34;;;;;;;9.77;6.30;;;20.70;99.90;;;;;;4984501;28;20197;-77
2022/08/14 05:10:24;;;;;;;6.88;6.28;;;20.70;99.90;;;;;;4978909;28;20288;-77
2022/08/14 05:13:09;;;;;;;7.72;6.80;;;20.70;99.90;;;;;;4983772;28;20216;-77
2022/08/14 05:15:57;;;;;;;9.15;6.75;;;20.70;99.90;;;;;;4986542;28;20712;-77
2022/08/14 05:18:42;;;;;;;9.35;7.35;;;20.70;99.90;;;;;;4983085;28;20489;-77
2022/08/14 05:21:27;;;;;;;9.02;7.22;;;20.70;99.90;;;;;;4985547;28;20283;-77
2022/08/14 05:24:12;;;;;;;8.25;6.88;;;20.70;99.90;;;;;;4988610;28;20209;-77
2022/08/14 05:26:57;;;;;;;8.02;7.22;;;20.70;99.90;;;;;;4984843;28;20185;-77
2022/08/14 05:29:43;;;;;;;7.32;6.72;;;20.70;99.90;;;;;;4983541;28;20196;-77
2022/08/14 05:32:27;;;;;;;7.93;7.10;;;20.70;99.90;;;;;;4984511;28;20304;-77
2022/08/14 05:35:11;;;;;;;8.35;7.55;;;20.70;99.90;;;;;;4988605;28;20224;-77
2022/08/14 05:37:56;;;;;;;7.40;6.72;;;20.80;99.90;;;;;;4983596;28;20224;-77
2022/08/14 05:40:40;;;;;;;9.10;7.07;;;20.80;99.90;;;;;;4985939;28;20360;-77
2022/08/14 05:43:25;;;;;;;8.35;7.28;;;20.80;99.90;;;;;;4991791;28;20715;-77
2022/08/14 05:46:11;;;;;;;8.80;7.07;;;20.80;99.90;;;;;;4985523;28;20191;-77
2022/08/14 05:48:57;;;;;;;8.45;7.30;;;20.90;99.90;;;;;;4996791;28;20242;-76
2022/08/14 05:51:43;;;;;;;9.82;7.75;;;20.90;99.90;;;;;;4989678;28;20248;-78
2022/08/14 05:54:28;;;;;;;8.13;7.32;;;21.00;99.90;;;;;;4989779;28;20297;-76
2022/08/14 05:57:12;;;;;;;10.10;7.45;;;21.00;99.90;;;;;;4981662;28;20200;-76
2022/08/14 05:59:56;;;;;;;8.23;7.43;;;21.00;99.90;;;;;;4986402;28;20192;-77
2022/08/14 06:02:40;;;;;;;11.02;7.57;;;21.00;99.90;;;;;;4989246;28;20196;-76
2022/08/14 06:05:25;;;;;;;8.48;7.57;;;21.10;99.90;;;;;;4983452;28;20304;-77
2022/08/14 06:08:20;;;;;;;9.27;7.82;;;21.10;99.90;;;;;;4989102;28;20184;-77
2022/08/14 06:11:05;;;;;;;8.90;7.88;;;21.20;99.90;;;;;;4992559;28;20231;-77
2022/08/14 06:13:50;;;;;;;9.05;7.47;;;21.20;99.90;;;;;;4993279;28;20239;-75
2022/08/14 06:16:33;;;;;;;8.95;7.78;;;21.30;99.90;;;;;;4998005;28;20240;-77
2022/08/14 06:19:17;;;;;;;9.00;7.70;;;21.30;99.90;;;;;;4991921;28;20192;-76
2022/08/14 06:22:02;;;;;;;8.02;7.07;;;21.40;99.90;;;;;;4988556;28;20247;-76
2022/08/14 06:24:46;;;;;;;8.48;7.60;;;21.40;99.90;;;;;;4991075;28;20222;-77
2022/08/14 06:27:38;;;;;;;8.55;7.65;;;21.50;99.90;;;;;;4998413;28;20239;-77
2022/08/14 06:30:25;;;;;;;9.80;7.72;;;21.50;99.90;;;;;;4982515;28;20196;-77
2022/08/14 06:33:09;;;;;;;8.93;7.85;;;21.60;99.90;;;;;;4983379;28;20235;-76
2022/08/14 06:35:53;;;;;;;10.40;7.55;;;21.70;99.90;;;;;;4995076;28;20200;-77
2022/08/14 06:38:37;;;;;;;8.45;7.05;;;21.80;99.90;;;;;;4982875;28;20205;-76
2022/08/14 06:41:22;;;;;;;7.45;6.63;;;21.80;99.90;;;;;;4988720;28;20257;-76
2022/08/14 06:44:07;;;;;;;11.05;6.95;;;21.90;99.90;;;;;;4990867;28;20358;-76
2022/08/14 06:46:51;;;;;;;7.47;6.78;;;22.10;99.90;;;;;;4991437;28;20240;-77
2022/08/14 06:49:38;;;;;;;9.45;6.47;;;22.20;99.90;;;;;;4982918;28;20237;-77
2022/08/14 06:52:23;;;;;;;7.32;6.40;;;22.20;99.90;;;;;;4990269;28;20248;-78
2022/08/14 06:55:08;;;;;;;7.63;6.82;;;22.30;99.90;;;;;;4992078;28;20257;-77
2022/08/14 06:57:52;;;;;;;6.93;6.32;;;22.40;99.90;;;;;;4996225;28;20667;-77
2022/08/14 07:00:36;;;;;;;7.15;6.40;;;22.50;99.90;;;;;;4984523;28;20272;-76
2022/08/14 07:06:23;;;;;;;8.73;6.85;;;22.80;99.90;;;;;;4992191;28;20191;-77
2022/08/14 07:09:09;;;;;;;7.30;6.60;;;22.80;99.90;;;;;;4982357;28;20422;-78
2022/08/14 07:11:54;;;;;;;6.65;6.00;;;23.00;99.90;;;;;;4984262;28;20224;-76
2022/08/14 07:14:38;;;;;;;6.72;6.13;;;23.00;99.90;;;;;;4995893;28;20278;-77
2022/08/14 07:17:23;;;;;;;9.68;6.30;;;23.20;99.90;;;;;;4992188;28;20676;-77
2022/08/14 07:20:07;;;;;;;7.80;6.63;;;23.30;99.90;;;;;;4984358;28;20191;-77
2022/08/14 07:22:57;;;;;;;8.73;6.30;;;23.40;99.90;;;;;;4976271;28;20235;-77
2022/08/14 07:25:43;;;;;;;6.50;5.78;;;23.40;99.90;;;;;;4982285;28;20193;-77
2022/08/14 07:28:31;;;;;;;12.50;7.15;;;23.50;99.90;;;;;;4980082;28;20743;-77
2022/08/14 07:31:16;;;;;;;7.63;6.22;;;23.70;99.90;;;;;;4978332;28;20314;-77
2022/08/14 07:34:00;;;;;;;6.82;6.22;;;23.80;99.90;;;;;;4978542;28;20266;-77
2022/08/14 07:36:44;;;;;;;6.78;6.18;;;23.80;99.90;;;;;;4990066;28;20274;-77
2022/08/14 07:39:28;;;;;;;6.97;6.28;;;23.90;99.90;;;;;;4982825;28;20237;-76
2022/08/14 07:42:12;;;;;;;10.52;6.40;;;23.90;99.90;;;;;;4981246;28;20268;-77
2022/08/14 07:44:57;;;;;;;6.60;6.00;;;24.00;99.90;;;;;;4981357;28;20196;-76
2022/08/14 07:47:42;;;;;;;7.43;6.78;;;24.10;99.90;;;;;;5004710;28;20211;-77
2022/08/14 07:50:26;;;;;;;7.97;6.68;;;24.10;99.90;;;;;;4986716;28;20252;-77
2022/08/14 07:53:15;;;;;;;7.38;6.65;;;24.30;99.90;;;;;;4983693;28;20275;-77
2022/08/14 07:55:59;;;;;;;6.97;6.35;;;24.30;99.90;;;;;;4996512;28;20236;-76
2022/08/14 07:58:44;;;;;;;13.23;6.35;;;24.40;99.90;;;;;;4994525;28;20612;-77
2022/08/14 08:01:29;;;;;;;8.02;6.40;;;24.50;99.90;;;;;;4987793;28;20315;-77
2022/08/14 08:04:14;;;;;;;7.80;6.35;;;24.60;99.90;;;;;;4984590;28;20268;-77
2022/08/14 08:06:59;;;;;;;8.07;6.10;;;24.60;99.90;;;;;;4988704;28;20197;-77
2022/08/14 08:09:52;;;;;;;6.53;5.93;;;24.70;99.90;;;;;;4996479;28;20204;-77
2022/08/14 08:12:36;;;;;;;6.65;5.95;;;24.70;99.90;;;;;;4987331;28;20720;-77
2022/08/14 08:15:22;;;;;;;6.90;5.70;;;24.80;99.90;;;;;;4984835;28;20200;-77
2022/08/14 08:18:08;;;;;;;6.38;5.78;;;24.90;99.90;;;;;;4997741;28;20562;-77
2022/08/14 08:20:54;;;;;;;6.80;6.20;;;25.00;99.90;;;;;;5004023;28;20604;-77
2022/08/14 08:23:39;;;;;;;6.30;5.80;;;25.10;99.90;;;;;;4985558;28;20249;-77
2022/08/14 08:26:29;;;;;;;6.85;6.15;;;25.10;99.90;;;;;;4998874;28;20188;-77
2022/08/14 08:29:23;;;;;;;6.47;5.88;;;25.20;99.90;;;;;;4992096;28;20228;-77
2022/08/14 08:32:07;;;;;;;7.35;5.32;;;25.30;99.90;;;;;;4995129;28;20227;-78
2022/08/14 08:34:52;;;;;;;6.07;5.40;;;25.30;99.90;;;;;;4990502;28;20202;-77
2022/08/14 08:37:36;;;;;;;8.82;5.97;;;25.40;99.90;;;;;;4989972;28;20193;-77
2022/08/14 08:40:22;;;;;;;7.95;6.25;;;25.40;99.90;;;;;;4983005;28;20200;-76
2022/08/14 08:43:15;;;;;;;10.23;5.80;;;25.50;99.90;;;;;;4988672;28;20618;-76
2022/08/14 08:46:18;;;;;;;7.53;5.90;;;25.60;99.90;;;;;;4997939;28;20193;-77
2022/08/14 08:49:02;;;;;;;9.18;6.38;;;25.70;99.90;;;;;;4988304;28;20251;-77
2022/08/14 08:51:46;;;;;;;7.90;5.82;;;25.80;99.90;;;;;;4990022;28;20271;-77
2022/08/14 08:54:30;;;;;;;7.65;6.20;;;25.90;99.90;;;;;;4989333;28;20187;-77
2022/08/14 08:57:15;;;;;;;7.22;6.10;;;25.90;99.90;;;;;;5000642;28;20203;-77
2022/08/14 09:00:00;;;;;;;6.82;6.10;;;26.00;99.90;;;;;;4988488;28;20194;-78
2022/08/14 09:02:57;;;;;;;6.22;5.63;;;26.10;99.90;;;;;;4991225;28;20700;-77
2022/08/14 09:05:53;;;;;;;6.55;5.95;;;26.10;99.90;;;;;;4991215;28;20207;-78
2022/08/14 09:08:38;;;;;;;7.20;6.03;;;26.10;99.90;;;;;;4985377;28;20267;-77
2022/08/14 09:11:23;;;;;;;6.45;5.80;;;26.20;99.90;;;;;;4991627;28;20229;-77
2022/08/14 09:14:07;;;;;;;6.35;5.78;;;26.30;99.90;;;;;;4997183;28;20231;-75
2022/08/14 09:16:52;;;;;;;6.05;5.55;;;26.30;99.90;;;;;;4990209;28;20268;-77
2022/08/14 09:19:36;;;;;;;5.93;5.25;;;26.40;99.90;;;;;;4990478;28;20247;-78
2022/08/14 09:22:22;;;;;;;5.80;5.30;;;26.50;99.90;;;;;;4978906;28;20224;-77
2022/08/14 09:25:07;;;;;;;6.30;5.68;;;26.60;99.90;;;;;;4989892;28;20200;-77
2022/08/14 09:27:51;;;;;;;7.47;6.38;;;26.60;99.90;;;;;;5004043;28;20211;-77
2022/08/14 09:30:42;;;;;;;7.22;6.00;;;26.70;99.90;;;;;;4995554;28;20677;-77
2022/08/14 09:33:49;;;;;;;6.95;6.28;;;26.70;99.90;;;;;;4988227;28;20271;-77
2022/08/14 09:36:59;;;;;;;7.18;6.20;;;26.70;99.90;;;;;;5000745;28;20719;-77
2022/08/14 09:39:50;;;;;;;9.43;6.38;;;26.70;99.90;;;;;;5001305;28;20227;-77
2022/08/14 09:43:04;;;;;;;6.70;6.07;;;26.80;99.90;;;;;;4995791;28;20205;-78
2022/08/14 09:45:49;;;;;;;6.15;5.60;;;26.90;99.90;;;;;;5004375;28;20215;-78
2022/08/14 09:48:34;;;;;;;7.97;6.82;;;27.00;99.90;;;;;;4983626;28;20220;-78
2022/08/14 09:51:24;;;;;;;7.90;6.35;;;27.10;99.90;;;;;;4995835;28;20266;-78
2022/08/14 09:54:11;;;;;;;6.97;6.20;;;27.00;99.90;;;;;;4991440;28;20248;-77
2022/08/14 09:56:55;;;;;;;8.02;6.72;;;27.10;99.90;;;;;;5005307;28;20204;-77
2022/08/14 09:59:44;;;;;;;7.18;6.50;;;27.10;99.90;;;;;;5001516;28;20201;-78
2022/08/14 10:02:32;;;;;;;6.95;6.32;;;27.20;99.90;;;;;;4993480;28;20608;-77
2022/08/14 10:05:29;;;;;;;7.43;6.65;;;27.20;99.90;;;;;;4998235;28;20568;-77
2022/08/14 10:08:19;;;;;;;7.57;6.53;;;27.30;99.90;;;;;;4986946;28;20270;-78
2022/08/14 10:11:18;;;;;;;7.97;6.28;;;27.30;99.90;;;;;;4993702;28;20303;-78
2022/08/14 10:14:16;;;;;;;6.97;6.32;;;27.30;99.90;;;;;;4995324;28;20707;-78
2022/08/14 10:17:01;;;;;;;7.00;6.30;;;27.40;99.90;;;;;;4981226;28;20182;-78
2022/08/14 10:19:48;;;;;;;8.57;6.13;;;27.50;99.90;;;;;;4995047;28;20203;-78
2022/08/14 10:22:32;;;;;;;8.02;6.88;;;27.50;99.90;;;;;;5007416;28;20196;-78
2022/08/14 10:25:16;;;;;;;7.78;6.30;;;27.60;99.90;;;;;;4986865;28;20196;-78
2022/08/14 10:28:01;;;;;;;7.32;6.63;;;27.60;99.90;;;;;;5003749;28;20185;-78
2022/08/14 10:30:49;;;;;;;7.65;6.63;;;27.60;99.90;;;;;;5001498;28;20259;-78
2022/08/14 10:33:33;;;;;;;7.38;6.65;;;27.60;99.90;;;;;;4992858;28;20251;-78
2022/08/14 10:36:32;;;;;;;6.95;6.00;;;27.70;99.90;;;;;;5002875;28;20195;-79
2022/08/14 10:39:22;;;;;;;6.75;6.15;;;27.70;99.90;;;;;;4999421;28;20208;-79
2022/08/14 10:42:12;;;;;;;7.55;6.28;;;27.70;99.90;;;;;;5000256;28;20298;-79
2022/08/14 10:44:56;;;;;;;6.63;5.95;;;27.80;99.90;;;;;;4997897;28;20278;-78
2022/08/14 10:47:40;;;;;;;6.75;6.15;;;27.80;99.90;;;;;;4987321;28;20280;-77
2022/08/14 10:50:33;;;;;;;7.60;6.90;;;27.90;99.90;;;;;;4993146;28;20220;-78
2022/08/14 10:53:31;;;;;;;10.13;6.43;;;27.90;99.90;;;;;;4991514;28;20311;-78
2022/08/14 10:56:15;;;;;;;6.82;5.95;;;28.00;99.90;;;;;;4991468;28;20684;-78
2022/08/14 10:59:01;;;;;;;6.75;6.05;;;28.00;99.90;;;;;;4991756;28;20241;-79
2022/08/14 11:01:45;;;;;;;7.07;6.05;;;28.00;99.90;;;;;;4999657;28;20306;-79
2022/08/14 11:04:30;;;;;;;7.00;6.30;;;28.10;99.90;;;;;;4994019;28;20192;-79
2022/08/14 11:07:15;;;;;;;6.38;5.78;;;28.20;99.90;;;;;;4985386;28;20236;-78
2022/08/14 11:10:03;;;;;;;7.55;6.70;;;28.20;99.90;;;;;;4990302;28;20232;-79
2022/08/14 11:12:54;;;;;;;11.02;6.72;;;28.20;99.90;;;;;;4991665;28;20225;-78
2022/08/14 11:15:38;;;;;;;14.38;6.65;;;28.20;99.90;;;;;;4987502;28;20518;-78
2022/08/14 11:18:23;;;;;;;6.55;5.97;;;28.20;99.90;;;;;;4985795;28;20279;-79
2022/08/14 11:21:08;;;;;;;6.97;5.55;;;28.20;99.90;;;;;;4987620;28;20220;-79
2022/08/14 11:23:52;;;;;;;6.95;6.35;;;28.30;99.90;;;;;;4984820;28;20192;-78
2022/08/14 11:26:39;;;;;;;8.85;6.32;;;28.40;99.90;;;;;;4986619;28;20240;-78
2022/08/14 11:29:24;;;;;;;6.32;5.57;;;28.50;99.90;;;;;;4986638;28;20664;-78
2022/08/14 11:32:08;;;;;;;6.93;5.78;;;28.50;99.90;;;;;;4990387;28;20227;-78
2022/08/14 11:34:52;;;;;;;6.60;6.03;;;28.60;99.90;;;;;;4990529;28;20316;-78
2022/08/14 11:37:38;;;;;;;6.53;5.82;;;28.60;99.90;;;;;;4992592;28;20199;-79
2022/08/14 11:40:24;;;;;;;6.95;6.18;;;28.60;99.90;;;;;;4990220;28;20221;-78
2022/08/14 11:43:08;;;;;;;7.72;6.10;;;28.60;99.90;;;;;;4990035;28;20189;-79
2022/08/14 11:45:52;;;;;;;8.05;5.90;;;28.70;99.90;;;;;;4990529;28;20234;-78
2022/08/14 11:48:51;;;;;;;5.80;5.20;;;28.80;99.90;;;;;;4992867;28;20204;-78
2022/08/14 11:51:36;;;;;;;8.63;5.60;;;28.90;99.90;;;;;;4987251;28;20224;-79
2022/08/14 11:54:21;;;;;;;6.25;5.65;;;29.00;99.90;;;;;;4992642;28;20193;-79
2022/08/14 11:57:13;;;;;;;6.35;5.55;;;29.00;99.90;;;;;;4990675;28;20717;-78
2022/08/14 12:00:04;;;;;;;7.03;5.60;;;29.10;99.90;;;;;;4986642;28;20200;-79
2022/08/14 12:02:53;;;;;;;6.00;5.40;;;29.10;99.90;;;;;;4988408;28;20249;-78
2022/08/14 12:05:41;;;;;;;6.30;4.93;;;29.20;99.90;;;;;;4991682;28;20200;-79
2022/08/14 12:08:34;;;;;;;6.20;5.60;;;29.30;99.90;;;;;;4985100;28;20208;-79
2022/08/14 12:11:20;;;;;;;7.00;5.10;;;29.40;99.90;;;;;;4990750;28;20228;-79
2022/08/14 12:14:08;;;;;;;6.82;5.40;;;29.40;99.90;;;;;;4985885;28;20201;-79
2022/08/14 12:17:07;;;;;;;7.53;5.68;;;29.50;99.90;;;;;;4996152;28;20238;-78
2022/08/14 12:19:54;;;;;;;6.32;5.72;;;29.60;99.90;;;;;;4988206;28;20212;-78
2022/08/14 12:22:42;;;;;;;8.88;5.80;;;29.60;99.90;;;;;;4983691;28;20217;-79
2022/08/14 12:25:26;;;;;;;8.32;5.65;;;29.50;99.90;;;;;;4987188;28;20914;-78
2022/08/14 12:28:11;;;;;;;5.72;5.22;;;29.60;99.90;;;;;;4988760;28;20212;-78
2022/08/14 12:30:57;;;;;;;5.93;5.43;;;29.50;99.90;;;;;;4987840;28;20264;-79
2022/08/14 12:33:41;;;;;;;6.43;5.68;;;29.50;99.90;;;;;;4996654;28;20188;-78
2022/08/14 12:36:29;;;;;;;8.10;5.40;;;29.50;99.90;;;;;;4988134;28;20213;-79
2022/08/14 12:39:25;;;;;;;6.00;5.22;;;29.40;99.90;;;;;;4986456;28;20188;-79
2022/08/14 12:42:09;;;;;;;7.20;5.60;;;29.50;99.90;;;;;;4996389;28;20220;-79
2022/08/14 12:44:57;;;;;;;5.93;5.35;;;29.60;99.90;;;;;;4986282;28;20205;-78
2022/08/14 12:47:43;;;;;;;5.80;5.30;;;29.70;99.90;;;;;;4993027;28;20205;-78
2022/08/14 12:50:35;;;;;;;6.82;5.15;;;29.70;99.90;;;;;;4985028;28;20240;-79
2022/08/14 12:53:20;;;;;;;5.45;4.90;;;29.60;99.90;;;;;;4987788;28;20213;-79
2022/08/14 12:56:06;;;;;;;8.25;5.07;;;29.60;99.90;;;;;;4988202;28;20618;-79
2022/08/14 12:58:56;;;;;;;8.10;5.30;;;29.50;99.90;;;;;;4983893;28;20236;-79
2022/08/14 13:01:44;;;;;;;6.13;5.20;;;29.50;99.90;;;;;;4990593;28;20235;-79
2022/08/14 13:04:30;;;;;;;5.88;5.03;;;29.60;99.90;;;;;;4993376;28;20198;-79
2022/08/14 13:07:14;;;;;;;5.60;5.10;;;29.70;99.90;;;;;;4984524;28;20245;-79
2022/08/14 13:09:58;;;;;;;4.90;4.50;;;29.80;99.90;;;;;;4983865;28;20231;-79
2022/08/14 13:12:43;;;;;;;6.13;5.40;;;29.90;99.90;;;;;;4984799;28;20220;-79
2022/08/14 13:15:28;;;;;;;6.40;4.80;;;30.00;99.90;;;;;;4986104;28;20751;-79
2022/08/14 13:18:14;;;;;;;6.45;4.82;;;30.00;99.90;;;;;;4982285;28;20189;-80
2022/08/14 13:21:01;;;;;;;6.07;5.47;;;30.00;99.90;;;;;;4985898;28;20297;-79
2022/08/14 13:23:45;;;;;;;5.55;4.65;;;30.10;99.90;;;;;;4984963;28;20208;-79
2022/08/14 13:26:31;;;;;;;6.28;5.30;;;30.00;99.90;;;;;;4988020;28;20263;-79
2022/08/14 13:29:18;;;;;;;5.72;5.22;;;30.10;99.90;;;;;;4991471;28;20627;-79
2022/08/14 13:32:04;;;;;;;5.65;5.15;;;30.10;99.90;;;;;;4998108;28;20249;-79
2022/08/14 13:34:48;;;;;;;5.80;4.50;;;30.10;99.90;;;;;;4987941;28;20180;-80
2022/08/14 13:37:33;;;;;;;5.43;4.90;;;30.10;99.90;;;;;;4987864;28;20212;-79
2022/08/14 13:40:19;;;;;;;5.93;5.35;;;30.10;99.90;;;;;;4988760;28;20187;-79
2022/08/14 13:43:05;;;;;;;6.10;5.50;;;30.20;99.90;;;;;;4986455;28;20225;-79
2022/08/14 13:45:51;;;;;;;7.32;5.45;;;30.20;99.90;;;;;;4983577;28;20347;-78
2022/08/14 13:48:36;;;;;;;6.32;5.47;;;30.30;99.90;;;;;;4994211;28;20198;-80
2022/08/14 13:51:24;;;;;;;7.35;5.32;;;30.30;99.90;;;;;;4991539;28;20599;-80
2022/08/14 13:54:13;;;;;;;6.90;5.30;;;30.30;99.90;;;;;;4995863;28;20280;-80
2022/08/14 13:57:02;;;;;;;6.05;5.45;;;30.20;99.90;;;;;;5005494;28;20201;-79
2022/08/14 13:59:48;;;;;;;5.95;5.40;;;30.20;99.90;;;;;;4999701;28;20612;-80
2022/08/14 14:02:36;;;;;;;6.05;5.13;;;30.30;99.90;;;;;;4994765;28;20288;-80
2022/08/14 14:05:20;;;;;;;5.97;5.47;;;30.30;99.90;;;;;;5010218;28;20203;-79
2022/08/14 14:08:06;;;;;;;6.13;4.95;;;30.30;99.90;;;;;;4992458;28;20240;-80
2022/08/14 14:10:52;;;;;;;6.25;5.65;;;30.20;99.90;;;;;;4994692;28;20307;-80
2022/08/14 14:13:38;;;;;;;7.05;5.25;;;30.20;99.90;;;;;;4999343;28;20700;-79
2022/08/14 14:16:25;;;;;;;10.32;5.60;;;30.20;99.90;;;;;;4987216;28;20191;-80
2022/08/14 14:19:09;;;;;;;6.28;5.65;;;30.20;99.90;;;;;;4996254;28;20226;-80
2022/08/14 14:21:54;;;;;;;6.35;5.75;;;30.20;99.90;;;;;;5012737;28;20216;-80
2022/08/14 14:24:38;;;;;;;6.13;5.13;;;30.20;99.90;;;;;;5004837;28;20197;-79
2022/08/14 14:27:26;;;;;;;6.78;5.63;;;30.20;99.90;;;;;;5008229;28;20671;-80
2022/08/14 14:30:12;;;;;;;7.43;5.57;;;30.10;99.90;;;;;;5005457;28;20243;-80
2022/08/14 14:32:57;;;;;;;5.88;5.25;;;30.10;99.90;;;;;;4998918;28;20244;-79
2022/08/14 14:35:44;;;;;;;4.97;4.57;;;30.20;99.90;;;;;;4994631;28;20272;-79
2022/08/14 14:38:32;;;;;;;6.35;5.60;;;30.20;99.90;;;;;;5000798;28;20188;-80
2022/08/14 14:41:19;;;;;;;8.85;5.45;;;30.40;99.90;;;;;;4993280;28;20273;-80
2022/08/14 14:44:05;;;;;;;6.10;5.55;;;30.40;99.90;;;;;;5007398;28;20200;-80
2022/08/14 14:46:50;;;;;;;5.93;5.20;;;30.50;99.90;;;;;;4998432;28;20254;-80
2022/08/14 14:49:35;;;;;;;6.07;5.53;;;30.50;99.90;;;;;;4995141;28;20282;-79
2022/08/14 14:52:22;;;;;;;5.82;5.40;;;30.60;99.90;;;;;;4993151;28;20784;-80
2022/08/14 14:55:08;;;;;;;6.00;5.40;;;30.60;99.90;;;;;;4991580;28;20584;-79
2022/08/14 14:57:52;;;;;;;8.88;5.28;;;30.60;99.90;;;;;;4992114;28;20573;-81
2022/08/14 15:00:37;;;;;;;6.10;5.60;;;30.70;99.90;;;;;;5005357;28;20639;-80
2022/08/14 15:03:22;;;;;;;6.78;5.72;;;30.70;99.90;;;;;;5005013;28;20227;-80
2022/08/14 15:06:06;;;;;;;6.38;4.95;;;30.80;99.90;;;;;;5000059;28;20599;-80
2022/08/14 15:08:54;;;;;;;5.65;5.15;;;30.80;99.90;;;;;;4998653;28;20235;-79
2022/08/14 15:11:38;;;;;;;5.68;5.10;;;30.80;99.90;;;;;;5001308;28;20227;-80
2022/08/14 15:14:22;;;;;;;5.80;5.22;;;30.80;99.90;;;;;;4996307;28;20655;-80
2022/08/14 15:17:07;;;;;;;5.97;5.40;;;30.80;99.90;;;;;;5000453;28;20196;-80